CheckWX is a tool to help pilots better visualize weather data.  It is not intended as a substitute for an official pre-flight weather briefing.

09:37:54 UTC

KAQW METAR
Harriman-And-West Airport
North Adams, Massachusetts, USA
Current

46 mins ago

KAQW 250852Z AUTO 00000KT 10SM OVC095 01/M02 A2988 RMK AO2 SLP121 T00061017 55011 $
Observed
Feb-25 @ 08:52 UTC
Visibility
10 SM
Flight Rules
VFR
Cloud Levels
  • Overcast at 9,500' AGL
Temperature
C / 34°F
Dewpoint
-2°C / 28°F
Humidity
81%
Altimeter
29.88" Hg
Pressure
1011.82 hPa
Previous

2 hours ago

KAQW 250752Z AUTO 00000KT 10SM SCT090 BKN120 01/M02 A2987 RMK AO2 SLP120 T00111017 $
Observed
Feb-25 @ 07:52 UTC
Visibility
10 SM
Flight Rules
VFR
Cloud Levels
  • Scattered at 9,000' AGL
  • Broken at 12,000' AGL
Temperature
C / 34°F
Dewpoint
-2°C / 28°F
Humidity
81%
Altimeter
29.87" Hg
Pressure
1011.52 hPa
Previous

3 hours ago

KAQW 250652Z AUTO 10004KT 10SM OVC085 01/M02 A2989 RMK AO2 SLP124 T00111022 $
Observed
Feb-25 @ 06:52 UTC
Wind
  • 100° at 4 KTS
Visibility
10 SM
Flight Rules
VFR
Cloud Levels
  • Overcast at 8,500' AGL
Temperature
C / 34°F
Dewpoint
-2°C / 28°F
Humidity
81%
Altimeter
29.89" Hg
Pressure
1012.22 hPa